DNKN/KAN METAR and TAF weather

Enter ICAO airport designator
Station Type Date Time Source
DNKN METAR 2019/06/25 11:00 UTC NOAA

DNKN 251100Z 20013KT CAVOK 28/21 Q1016 NOSIG


Station Type Date Time Source
DNKN Decoded METAR 2019/06/25 11:00 UTC NOAA

Kano, Nigeria (DNKN) 12-03N 008-32E 481M
Jun 25, 2019 - 07:00 AM EDT / 2019.06.25 1100 UTC
Wind: from the SSW (200 degrees) at 15 MPH (13 KT):0
Visibility: greater than 7 mile(s):0
Temperature: 82 F (28 C)
Dew Point: 69 F (21 C)
Relative Humidity: 65%
Pressure (altimeter): 30.00 in. Hg (1016 hPa)
ob: DNKN 251100Z 20013KT CAVOK 28/21 Q1016 NOSIG
cycle: 11

Station Type Date Time Source
DNKN TAF 2019/06/25 12:27 UTC NOAA

TAF DNKN 250945Z 2512/2618 23012KT 9999 FEW014
TEMPO 2513/2519 TS SCT011 FEW019CB
TEMPO 2519/2600 06015G35KT 5000 TSRA BKN010 FEW018CB
BECMG2602/2604 23010KT CAVOK

Example: see airport list